CPA157 VHHH-YBBN
Flight info
| Callsign | CPA157 |
|---|---|
| Flight time | N/A |
| Altitude | 35000 |
| Route | DALOL V642 NOMAN A461 AVMUP W16 MIA W11 MCT W8 DAO B473 ELNIT/N0496F370 B473 MEMOS/N0484F390 B473 CS Y177 SMOKA |
| Aircraft | A35K/H-SDE2E3GHIJ1J3J4J5LM1ORWXY/LB1D1 |
Departure
| Time | 2026-05-05 05:08 |
|---|---|
| Airport | Hong Kong International Airport (VHHH) |
Arrival
| Time | N/A |
|---|---|
| Airport | Brisbane International Airport (YBBN) |
| Time | Latitude | Longitude | Altitude | Speed | Heading |
|---|---|---|---|---|---|
| 2026-05-05 03:29 | 22.31410 | 113.92865 | 38 ft | 0 kts | 161° |
| 2026-05-05 04:54 | 22.31430 | 113.92857 | 37 ft | 4 kts | 161° |
| 2026-05-05 04:54 | 22.31456 | 113.92847 | 36 ft | 4 kts | 161° |
| 2026-05-05 04:55 | 22.31477 | 113.92841 | 36 ft | 4 kts | 176° |
| 2026-05-05 04:55 | 22.31500 | 113.92845 | 36 ft | 4 kts | 227° |
| 2026-05-05 04:55 | 22.31511 | 113.92868 | 32 ft | 4 kts | 251° |
| 2026-05-05 04:55 | 22.31519 | 113.92894 | 34 ft | 2 kts | 251° |
| 2026-05-05 04:56 | 22.31519 | 113.92895 | 34 ft | 0 kts | 251° |
| 2026-05-05 05:00 | 22.31519 | 113.92894 | 38 ft | 1 kts | 251° |
| 2026-05-05 05:00 | 22.31512 | 113.92873 | 38 ft | 7 kts | 251° |
| 2026-05-05 05:00 | 22.31490 | 113.92796 | 38 ft | 13 kts | 261° |
| 2026-05-05 05:00 | 22.31517 | 113.92702 | 37 ft | 14 kts | 296° |
| 2026-05-05 05:01 | 22.31561 | 113.92602 | 38 ft | 15 kts | 296° |
| 2026-05-05 05:01 | 22.31610 | 113.92495 | 38 ft | 17 kts | 296° |
| 2026-05-05 05:01 | 22.31644 | 113.92386 | 38 ft | 15 kts | 266° |
| 2026-05-05 05:01 | 22.31612 | 113.92273 | 38 ft | 17 kts | 251° |
| 2026-05-05 05:02 | 22.31570 | 113.92143 | 38 ft | 20 kts | 251° |
| 2026-05-05 05:02 | 22.31523 | 113.91995 | 38 ft | 21 kts | 249° |
| 2026-05-05 05:02 | 22.31471 | 113.91837 | 38 ft | 23 kts | 250° |
| 2026-05-05 05:02 | 22.31415 | 113.91663 | 38 ft | 26 kts | 251° |
| 2026-05-05 05:03 | 22.31355 | 113.91476 | 38 ft | 27 kts | 251° |
| 2026-05-05 05:03 | 22.31292 | 113.91283 | 38 ft | 28 kts | 251° |
| 2026-05-05 05:03 | 22.31228 | 113.91085 | 38 ft | 28 kts | 251° |
| 2026-05-05 05:03 | 22.31163 | 113.90882 | 38 ft | 29 kts | 251° |
| 2026-05-05 05:04 | 22.31096 | 113.90674 | 38 ft | 30 kts | 251° |
| 2026-05-05 05:04 | 22.31028 | 113.90461 | 38 ft | 30 kts | 251° |
| 2026-05-05 05:04 | 22.30959 | 113.90249 | 38 ft | 28 kts | 250° |
| 2026-05-05 05:04 | 22.30896 | 113.90056 | 38 ft | 28 kts | 251° |
| 2026-05-05 05:05 | 22.30849 | 113.89906 | 38 ft | 17 kts | 257° |
| 2026-05-05 05:05 | 22.30892 | 113.89832 | 38 ft | 12 kts | 336° |
| 2026-05-05 05:05 | 22.30973 | 113.89801 | 38 ft | 13 kts | 341° |
| 2026-05-05 05:05 | 22.31045 | 113.89775 | 36 ft | 8 kts | 345° |
| 2026-05-05 05:06 | 22.31085 | 113.89793 | 36 ft | 6 kts | 55° |
| 2026-05-05 05:06 | 22.31103 | 113.89836 | 36 ft | 2 kts | 71° |
| 2026-05-05 05:06 | 22.31105 | 113.89843 | 36 ft | 2 kts | 71° |
| 2026-05-05 05:07 | 22.31132 | 113.89926 | 36 ft | 33 kts | 71° |
| 2026-05-05 05:07 | 22.31279 | 113.90383 | 37 ft | 94 kts | 70° |
| 2026-05-05 05:07 | 22.31557 | 113.91241 | 38 ft | 146 kts | 70° |
| 2026-05-05 05:07 | 22.31936 | 113.92427 | 193 ft | 177 kts | 72° |
| 2026-05-05 05:08 | 22.32316 | 113.93622 | 1015 ft | 163 kts | 72° |
| 2026-05-05 05:08 | 22.32696 | 113.94790 | 1494 ft | 170 kts | 72° |
| 2026-05-05 05:08 | 22.33114 | 113.96056 | 1727 ft | 188 kts | 71° |
| 2026-05-05 05:08 | 22.33529 | 113.97467 | 1987 ft | 206 kts | 78° |
| 2026-05-05 05:09 | 22.33792 | 113.99035 | 2370 ft | 217 kts | 82° |
| 2026-05-05 05:09 | 22.34028 | 114.00677 | 2803 ft | 225 kts | 82° |
| 2026-05-05 05:09 | 22.34281 | 114.02379 | 3274 ft | 232 kts | 82° |
| 2026-05-05 05:09 | 22.34345 | 114.04145 | 3763 ft | 238 kts | 97° |
| 2026-05-05 05:10 | 22.33879 | 114.05828 | 4291 ft | 238 kts | 120° |
| 2026-05-05 05:10 | 22.32872 | 114.07225 | 4784 ft | 236 kts | 141° |
| 2026-05-05 05:10 | 22.31511 | 114.08187 | 5116 ft | 233 kts | 158° |
| 2026-05-05 05:10 | 22.29951 | 114.08693 | 5630 ft | 234 kts | 173° |
| 2026-05-05 05:11 | 22.28327 | 114.08791 | 6245 ft | 236 kts | 182° |
| 2026-05-05 05:11 | 22.26628 | 114.08759 | 6553 ft | 253 kts | 183° |
| 2026-05-05 05:11 | 22.24824 | 114.08717 | 6917 ft | 265 kts | 183° |
| 2026-05-05 05:11 | 22.22953 | 114.08685 | 7486 ft | 270 kts | 183° |
| 2026-05-05 05:12 | 22.21065 | 114.08660 | 8190 ft | 273 kts | 184° |
| 2026-05-05 05:12 | 22.19174 | 114.08644 | 8865 ft | 278 kts | 183° |
| 2026-05-05 05:12 | 22.17230 | 114.08942 | 9503 ft | 288 kts | 164° |
| 2026-05-05 05:12 | 22.15522 | 114.10112 | 10114 ft | 300 kts | 136° |
| 2026-05-05 05:13 | 22.14315 | 114.12041 | 10502 ft | 321 kts | 120° |
| 2026-05-05 05:13 | 22.13287 | 114.14258 | 10998 ft | 339 kts | 119° |
| 2026-05-05 05:13 | 22.12220 | 114.16594 | 11630 ft | 355 kts | 120° |
| 2026-05-05 05:13 | 22.11091 | 114.19024 | 12193 ft | 370 kts | 120° |
| 2026-05-05 05:14 | 22.09907 | 114.21545 | 12489 ft | 383 kts | 120° |
| 2026-05-05 05:14 | 22.08675 | 114.24135 | 12814 ft | 392 kts | 121° |
| 2026-05-05 05:14 | 22.07099 | 114.26529 | 13252 ft | 391 kts | 138° |
| 2026-05-05 05:14 | 22.05014 | 114.28397 | 13749 ft | 391 kts | 147° |
| 2026-05-05 05:15 | 22.02804 | 114.30129 | 14169 ft | 394 kts | 148° |
| 2026-05-05 05:15 | 22.00569 | 114.31868 | 14593 ft | 398 kts | 148° |
| 2026-05-05 05:15 | 21.98322 | 114.33624 | 15018 ft | 401 kts | 148° |
| 2026-05-05 05:15 | 21.96084 | 114.35380 | 15416 ft | 404 kts | 148° |
| 2026-05-05 05:16 | 21.93800 | 114.37183 | 15853 ft | 407 kts | 148° |
| 2026-05-05 05:16 | 21.91507 | 114.38985 | 16268 ft | 410 kts | 148° |
| 2026-05-05 05:16 | 21.89198 | 114.40799 | 16722 ft | 411 kts | 148° |
| 2026-05-05 05:16 | 21.86931 | 114.42693 | 17200 ft | 417 kts | 142° |
| 2026-05-05 05:17 | 21.85019 | 114.45090 | 17693 ft | 428 kts | 126° |
| 2026-05-05 05:17 | 21.83774 | 114.48030 | 18074 ft | 437 kts | 110° |
| 2026-05-05 05:17 | 21.82927 | 114.51200 | 18439 ft | 442 kts | 108° |
| 2026-05-05 05:17 | 21.82138 | 114.54371 | 18757 ft | 445 kts | 108° |
| 2026-05-05 05:18 | 21.81327 | 114.57599 | 19079 ft | 449 kts | 108° |
| 2026-05-05 05:18 | 21.80501 | 114.60847 | 19404 ft | 452 kts | 108° |
| 2026-05-05 05:18 | 21.79662 | 114.64118 | 19719 ft | 455 kts | 108° |
| 2026-05-05 05:18 | 21.78803 | 114.67449 | 20094 ft | 457 kts | 108° |
| 2026-05-05 05:19 | 21.77949 | 114.70752 | 20404 ft | 460 kts | 108° |
| 2026-05-05 05:19 | 21.77098 | 114.74037 | 20730 ft | 464 kts | 108° |
| 2026-05-05 05:19 | 21.76227 | 114.77390 | 21040 ft | 467 kts | 108° |
| 2026-05-05 05:19 | 21.75349 | 114.80767 | 21382 ft | 470 kts | 108° |
| 2026-05-05 05:20 | 21.74265 | 114.84088 | 21692 ft | 470 kts | 117° |
| 2026-05-05 05:20 | 21.72637 | 114.87130 | 22000 ft | 470 kts | 127° |
| 2026-05-05 05:20 | 21.70755 | 114.90016 | 22316 ft | 472 kts | 130° |
| 2026-05-05 05:20 | 21.68760 | 114.92829 | 22647 ft | 474 kts | 131° |
| 2026-05-05 05:21 | 21.66712 | 114.95626 | 22956 ft | 477 kts | 132° |
| 2026-05-05 05:21 | 21.64651 | 114.98431 | 23262 ft | 480 kts | 131° |
| 2026-05-05 05:21 | 21.62586 | 115.01273 | 23567 ft | 484 kts | 131° |
| 2026-05-05 05:21 | 21.60525 | 115.04141 | 23861 ft | 485 kts | 131° |
| 2026-05-05 05:22 | 21.58465 | 115.07019 | 24161 ft | 487 kts | 131° |
| 2026-05-05 05:22 | 21.56402 | 115.09913 | 24431 ft | 489 kts | 131° |
| 2026-05-05 05:22 | 21.54327 | 115.12830 | 24750 ft | 491 kts | 131° |
| 2026-05-05 05:22 | 21.52278 | 115.15715 | 25070 ft | 494 kts | 131° |
| 2026-05-05 05:23 | 21.50190 | 115.18659 | 25383 ft | 496 kts | 131° |
| 2026-05-05 05:23 | 21.48093 | 115.21608 | 25735 ft | 498 kts | 131° |
| 2026-05-05 05:23 | 21.45985 | 115.24569 | 26087 ft | 500 kts | 131° |
| 2026-05-05 05:23 | 21.43867 | 115.27542 | 26440 ft | 503 kts | 131° |
| 2026-05-05 05:24 | 21.41733 | 115.30535 | 26806 ft | 505 kts | 131° |
| 2026-05-05 05:24 | 21.39593 | 115.33536 | 27145 ft | 508 kts | 131° |
| 2026-05-05 05:24 | 21.37437 | 115.36557 | 27512 ft | 509 kts | 131° |
| 2026-05-05 05:24 | 21.35283 | 115.39576 | 27968 ft | 509 kts | 131° |
| 2026-05-05 05:25 | 21.33122 | 115.42604 | 28296 ft | 512 kts | 131° |
| 2026-05-05 05:25 | 21.30951 | 115.45642 | 28615 ft | 515 kts | 131° |
| 2026-05-05 05:25 | 21.28794 | 115.48659 | 28926 ft | 517 kts | 131° |
| 2026-05-05 05:25 | 21.26602 | 115.51725 | 29246 ft | 520 kts | 131° |
| 2026-05-05 05:26 | 21.24395 | 115.54809 | 29553 ft | 522 kts | 131° |
| 2026-05-05 05:26 | 21.22178 | 115.57905 | 29856 ft | 525 kts | 131° |
| 2026-05-05 05:26 | 21.19949 | 115.61017 | 30131 ft | 527 kts | 131° |
| 2026-05-05 05:26 | 21.17712 | 115.64139 | 30369 ft | 529 kts | 131° |
| 2026-05-05 05:27 | 21.15466 | 115.67271 | 30646 ft | 530 kts | 131° |
| 2026-05-05 05:27 | 21.13216 | 115.70407 | 30898 ft | 531 kts | 131° |
| 2026-05-05 05:27 | 21.08695 | 115.76703 | 31331 ft | 535 kts | 131° |
| 2026-05-05 05:28 | 21.06419 | 115.79869 | 31569 ft | 537 kts | 131° |
| 2026-05-05 05:28 | 21.04143 | 115.83035 | 31876 ft | 536 kts | 131° |
| 2026-05-05 05:28 | 21.01873 | 115.86191 | 32200 ft | 535 kts | 131° |
| 2026-05-05 05:28 | 20.99598 | 115.89352 | 32471 ft | 535 kts | 131° |
| 2026-05-05 05:29 | 20.97332 | 115.92499 | 32833 ft | 533 kts | 131° |
| 2026-05-05 05:29 | 20.95073 | 115.95633 | 33153 ft | 532 kts | 131° |
| 2026-05-05 05:29 | 20.92815 | 115.98765 | 33421 ft | 531 kts | 131° |
| 2026-05-05 05:29 | 20.90550 | 116.01904 | 33677 ft | 531 kts | 131° |
| 2026-05-05 05:30 | 20.88292 | 116.05030 | 33937 ft | 531 kts | 131° |
| 2026-05-05 05:30 | 20.86778 | 116.07076 | 34080 ft | 530 kts | 134° |
| 2026-05-05 05:30 | 20.84227 | 116.09889 | 34292 ft | 524 kts | 143° |
| 2026-05-05 05:30 | 20.80353 | 116.12990 | 34568 ft | 519 kts | 150° |
| 2026-05-05 05:31 | 20.77386 | 116.15094 | 34769 ft | 518 kts | 151° |
| 2026-05-05 05:31 | 20.74349 | 116.17162 | 34932 ft | 518 kts | 152° |
| 2026-05-05 05:31 | 20.68189 | 116.21273 | 34966 ft | 524 kts | 152° |
| 2026-05-05 05:32 | 20.62018 | 116.25406 | 34966 ft | 524 kts | 152° |
| 2026-05-05 05:32 | 20.56863 | 116.28883 | 34949 ft | 523 kts | 151° |
| 2026-05-05 05:33 | 20.50746 | 116.33017 | 34956 ft | 523 kts | 151° |
| 2026-05-05 05:33 | 20.44600 | 116.37169 | 34956 ft | 523 kts | 151° |
| 2026-05-05 05:34 | 20.38451 | 116.41317 | 34953 ft | 523 kts | 151° |
| 2026-05-05 05:34 | 20.32300 | 116.45462 | 34955 ft | 523 kts | 151° |
| 2026-05-05 05:35 | 20.26144 | 116.49605 | 34950 ft | 522 kts | 151° |
| 2026-05-05 05:35 | 20.20016 | 116.53727 | 34947 ft | 521 kts | 151° |
| 2026-05-05 05:36 | 20.13883 | 116.57847 | 34942 ft | 521 kts | 151° |
| 2026-05-05 05:36 | 20.07797 | 116.61933 | 34942 ft | 520 kts | 151° |
| 2026-05-05 05:37 | 20.01701 | 116.66103 | 34937 ft | 522 kts | 147° |
| 2026-05-05 05:37 | 19.96336 | 116.71375 | 34938 ft | 527 kts | 136° |
| 2026-05-05 05:38 | 19.91338 | 116.77102 | 34939 ft | 529 kts | 135° |
| 2026-05-05 05:38 | 19.86402 | 116.82892 | 34936 ft | 529 kts | 135° |
| 2026-05-05 05:39 | 19.81443 | 116.88678 | 34933 ft | 528 kts | 135° |
| 2026-05-05 05:39 | 19.76478 | 116.94434 | 34933 ft | 529 kts | 135° |
| 2026-05-05 05:40 | 19.71537 | 117.00144 | 34932 ft | 529 kts | 135° |
| 2026-05-05 05:40 | 19.66557 | 117.05892 | 34933 ft | 529 kts | 135° |
| 2026-05-05 05:41 | 19.61571 | 117.11644 | 34928 ft | 529 kts | 135° |
| 2026-05-05 05:41 | 19.56592 | 117.17383 | 34921 ft | 529 kts | 136° |
| 2026-05-05 05:42 | 19.51603 | 117.23128 | 34926 ft | 529 kts | 136° |
| 2026-05-05 05:42 | 19.46620 | 117.28860 | 34924 ft | 529 kts | 136° |
| 2026-05-05 05:43 | 19.41632 | 117.34592 | 34919 ft | 529 kts | 136° |
| 2026-05-05 05:43 | 19.36645 | 117.40318 | 34920 ft | 529 kts | 136° |
| 2026-05-05 05:44 | 19.31683 | 117.46009 | 34919 ft | 528 kts | 136° |
| 2026-05-05 05:44 | 19.26695 | 117.51724 | 34912 ft | 528 kts | 136° |
| 2026-05-05 05:45 | 19.21705 | 117.57438 | 34906 ft | 528 kts | 136° |
| 2026-05-05 05:45 | 19.16716 | 117.63144 | 34913 ft | 527 kts | 136° |
| 2026-05-05 05:46 | 19.11731 | 117.68840 | 34909 ft | 527 kts | 136° |
| 2026-05-05 05:46 | 19.06752 | 117.74523 | 34907 ft | 527 kts | 136° |
| 2026-05-05 05:47 | 19.01775 | 117.80203 | 34907 ft | 527 kts | 136° |
| 2026-05-05 05:47 | 18.96824 | 117.85850 | 34904 ft | 527 kts | 136° |
| 2026-05-05 05:48 | 18.91840 | 117.91516 | 34903 ft | 527 kts | 136° |
| 2026-05-05 05:48 | 18.86845 | 117.97192 | 34903 ft | 527 kts | 136° |
| 2026-05-05 05:49 | 18.81857 | 118.02857 | 34903 ft | 526 kts | 136° |
| 2026-05-05 05:49 | 18.76901 | 118.08483 | 34898 ft | 526 kts | 136° |
| 2026-05-05 05:50 | 18.71916 | 118.14136 | 34899 ft | 526 kts | 136° |
| 2026-05-05 05:50 | 18.66931 | 118.19783 | 34893 ft | 526 kts | 136° |
| 2026-05-05 05:51 | 18.61952 | 118.25419 | 34891 ft | 526 kts | 136° |
| 2026-05-05 05:51 | 18.56962 | 118.31061 | 34895 ft | 525 kts | 136° |
| 2026-05-05 05:52 | 18.51973 | 118.36699 | 34890 ft | 525 kts | 136° |
| 2026-05-05 05:52 | 18.47019 | 118.42290 | 34891 ft | 525 kts | 136° |
| 2026-05-05 05:53 | 18.42025 | 118.47921 | 34887 ft | 525 kts | 136° |
| 2026-05-05 05:53 | 18.37039 | 118.53539 | 34882 ft | 525 kts | 136° |
| 2026-05-05 05:54 | 18.32047 | 118.59158 | 34886 ft | 525 kts | 136° |
| 2026-05-05 05:54 | 18.27054 | 118.64773 | 34884 ft | 525 kts | 136° |
| 2026-05-05 05:55 | 18.22055 | 118.70390 | 34880 ft | 526 kts | 136° |
| 2026-05-05 05:55 | 18.17050 | 118.76009 | 34880 ft | 526 kts | 136° |
| 2026-05-05 05:56 | 18.12076 | 118.81588 | 34878 ft | 526 kts | 136° |
| 2026-05-05 05:56 | 18.07071 | 118.87196 | 34877 ft | 526 kts | 136° |
| 2026-05-05 05:57 | 18.02059 | 118.92801 | 34871 ft | 525 kts | 136° |
| 2026-05-05 05:57 | 17.96385 | 118.97504 | 34877 ft | 518 kts | 152° |
| 2026-05-05 05:58 | 17.90146 | 119.01288 | 34872 ft | 517 kts | 154° |
| 2026-05-05 05:58 | 17.83831 | 119.04910 | 34869 ft | 517 kts | 155° |
| 2026-05-05 05:59 | 17.77517 | 119.08524 | 34867 ft | 517 kts | 154° |
| 2026-05-05 05:59 | 17.71254 | 119.12134 | 34869 ft | 516 kts | 154° |
| 2026-05-05 06:00 | 17.64969 | 119.15769 | 34873 ft | 516 kts | 154° |
| 2026-05-05 06:00 | 17.58678 | 119.19407 | 34872 ft | 516 kts | 154° |
| 2026-05-05 06:01 | 17.52395 | 119.23036 | 34870 ft | 516 kts | 154° |
| 2026-05-05 06:01 | 17.46104 | 119.26667 | 34869 ft | 516 kts | 154° |
| 2026-05-05 06:02 | 17.39823 | 119.30288 | 34868 ft | 515 kts | 154° |
| 2026-05-05 06:02 | 17.33591 | 119.33878 | 34870 ft | 514 kts | 154° |
| 2026-05-05 06:03 | 17.27290 | 119.37506 | 34869 ft | 514 kts | 154° |
| 2026-05-05 06:03 | 17.21063 | 119.41087 | 34870 ft | 514 kts | 154° |
| 2026-05-05 06:04 | 17.14800 | 119.44686 | 34870 ft | 514 kts | 154° |
| 2026-05-05 06:04 | 17.08538 | 119.48283 | 34861 ft | 514 kts | 154° |
| 2026-05-05 06:05 | 17.02273 | 119.51878 | 34868 ft | 512 kts | 154° |
| 2026-05-05 06:05 | 16.96025 | 119.55461 | 34869 ft | 512 kts | 153° |
| 2026-05-05 06:06 | 16.89776 | 119.59042 | 34868 ft | 512 kts | 153° |
| 2026-05-05 06:06 | 16.83526 | 119.62620 | 34862 ft | 512 kts | 153° |
| 2026-05-05 06:07 | 16.77281 | 119.66193 | 34862 ft | 512 kts | 153° |
| 2026-05-05 06:07 | 16.71071 | 119.69743 | 34862 ft | 512 kts | 153° |
| 2026-05-05 06:08 | 16.64826 | 119.73311 | 34862 ft | 511 kts | 153° |
| 2026-05-05 06:08 | 16.58587 | 119.76872 | 34865 ft | 511 kts | 153° |
| 2026-05-05 06:09 | 16.52347 | 119.80431 | 34865 ft | 511 kts | 153° |
| 2026-05-05 06:09 | 16.46103 | 119.83990 | 34864 ft | 511 kts | 153° |
| 2026-05-05 06:10 | 16.39853 | 119.87550 | 34865 ft | 511 kts | 153° |
| 2026-05-05 06:10 | 16.33611 | 119.91102 | 34864 ft | 511 kts | 153° |
| 2026-05-05 06:11 | 16.27359 | 119.94658 | 34864 ft | 511 kts | 153° |
| 2026-05-05 06:11 | 16.21156 | 119.98183 | 34865 ft | 511 kts | 153° |
| 2026-05-05 06:12 | 16.14914 | 120.01728 | 34862 ft | 511 kts | 153° |
| 2026-05-05 06:12 | 16.08671 | 120.05272 | 34863 ft | 511 kts | 153° |
| 2026-05-05 06:13 | 16.02427 | 120.08813 | 34866 ft | 510 kts | 153° |
| 2026-05-05 06:13 | 15.96190 | 120.12347 | 34868 ft | 510 kts | 153° |
| 2026-05-05 06:14 | 15.89952 | 120.15879 | 34873 ft | 510 kts | 153° |
| 2026-05-05 06:14 | 15.83711 | 120.19411 | 34872 ft | 510 kts | 153° |
| 2026-05-05 06:15 | 15.77473 | 120.22938 | 34881 ft | 510 kts | 153° |
| 2026-05-05 06:15 | 15.71241 | 120.26460 | 34881 ft | 510 kts | 153° |
| 2026-05-05 06:16 | 15.65003 | 120.29984 | 34889 ft | 510 kts | 153° |
| 2026-05-05 06:16 | 15.58807 | 120.33482 | 34888 ft | 510 kts | 153° |
| 2026-05-05 06:17 | 15.52569 | 120.36997 | 34897 ft | 510 kts | 153° |
| 2026-05-05 06:17 | 15.46336 | 120.40512 | 34886 ft | 510 kts | 153° |
| 2026-05-05 06:18 | 15.40095 | 120.44027 | 34890 ft | 510 kts | 153° |
| 2026-05-05 06:18 | 15.33852 | 120.47545 | 34888 ft | 510 kts | 153° |
| 2026-05-05 06:19 | 15.27616 | 120.51046 | 34884 ft | 510 kts | 153° |
| 2026-05-05 06:19 | 15.21365 | 120.54556 | 34882 ft | 510 kts | 153° |
| 2026-05-05 06:20 | 15.16200 | 120.57514 | 34884 ft | 511 kts | 150° |
| 2026-05-05 06:20 | 15.10250 | 120.61552 | 34884 ft | 512 kts | 147° |
| 2026-05-05 06:21 | 15.04384 | 120.65718 | 34887 ft | 511 kts | 147° |
| 2026-05-05 06:21 | 14.98473 | 120.69823 | 34888 ft | 511 kts | 148° |
| 2026-05-05 06:22 | 14.92537 | 120.73878 | 34888 ft | 511 kts | 148° |
| 2026-05-05 06:22 | 14.86591 | 120.77914 | 34889 ft | 511 kts | 148° |
| 2026-05-05 06:23 | 14.80642 | 120.81944 | 34886 ft | 511 kts | 148° |
| 2026-05-05 06:23 | 14.74691 | 120.85979 | 34883 ft | 511 kts | 148° |
| 2026-05-05 06:24 | 14.68787 | 120.89988 | 34881 ft | 511 kts | 148° |
| 2026-05-05 06:24 | 14.62845 | 120.94018 | 34861 ft | 510 kts | 148° |
| 2026-05-05 06:25 | 14.56904 | 120.98035 | 34857 ft | 510 kts | 148° |
| 2026-05-05 06:25 | 14.50958 | 121.02057 | 34856 ft | 510 kts | 148° |
| 2026-05-05 06:26 | 14.45080 | 121.06174 | 34856 ft | 511 kts | 146° |
| 2026-05-05 06:26 | 14.39274 | 121.10426 | 34858 ft | 511 kts | 147° |
| 2026-05-05 06:27 | 14.30558 | 121.16771 | 34863 ft | 511 kts | 147° |
| 2026-05-05 06:28 | 14.24745 | 121.20965 | 34873 ft | 510 kts | 147° |
| 2026-05-05 06:28 | 14.18966 | 121.25132 | 34867 ft | 510 kts | 147° |
| 2026-05-05 06:29 | 14.13144 | 121.29317 | 34867 ft | 509 kts | 147° |
| 2026-05-05 06:29 | 14.07337 | 121.33491 | 34872 ft | 509 kts | 147° |
| 2026-05-05 06:30 | 14.01529 | 121.37669 | 34863 ft | 509 kts | 147° |
| 2026-05-05 06:30 | 13.95721 | 121.41836 | 34870 ft | 509 kts | 147° |
| 2026-05-05 06:31 | 13.89912 | 121.46002 | 34868 ft | 508 kts | 147° |
| 2026-05-05 06:31 | 13.84111 | 121.50163 | 34867 ft | 508 kts | 147° |
| 2026-05-05 06:32 | 13.78310 | 121.54321 | 34865 ft | 508 kts | 147° |
| 2026-05-05 06:32 | 13.72545 | 121.58452 | 34864 ft | 508 kts | 147° |
| 2026-05-05 06:33 | 13.66755 | 121.62604 | 34866 ft | 506 kts | 146° |
| 2026-05-05 06:33 | 13.60979 | 121.66742 | 34864 ft | 506 kts | 146° |
| 2026-05-05 06:34 | 13.55195 | 121.70870 | 34863 ft | 506 kts | 146° |
| 2026-05-05 06:34 | 13.49420 | 121.74994 | 34864 ft | 506 kts | 146° |
| 2026-05-05 06:35 | 13.43644 | 121.79119 | 34864 ft | 505 kts | 146° |
| 2026-05-05 06:35 | 13.37866 | 121.83243 | 34864 ft | 505 kts | 146° |
| 2026-05-05 06:36 | 13.32099 | 121.87359 | 34861 ft | 504 kts | 146° |
| 2026-05-05 06:36 | 13.26381 | 121.91435 | 34861 ft | 503 kts | 146° |
| 2026-05-05 06:37 | 13.20627 | 121.95535 | 34863 ft | 503 kts | 146° |
| 2026-05-05 06:37 | 13.14875 | 121.99631 | 34862 ft | 503 kts | 146° |
| 2026-05-05 06:38 | 13.09124 | 122.03725 | 34861 ft | 503 kts | 146° |
| 2026-05-05 06:38 | 13.03366 | 122.07820 | 34861 ft | 503 kts | 146° |
| 2026-05-05 06:39 | 12.97606 | 122.11916 | 34865 ft | 504 kts | 146° |
| 2026-05-05 06:39 | 12.91844 | 122.16010 | 34859 ft | 504 kts | 146° |
| 2026-05-05 06:40 | 12.86114 | 122.20079 | 34856 ft | 504 kts | 146° |
| 2026-05-05 06:40 | 12.80355 | 122.24166 | 34856 ft | 504 kts | 146° |
| 2026-05-05 06:41 | 12.74591 | 122.28254 | 34854 ft | 504 kts | 146° |
| 2026-05-05 06:41 | 12.68837 | 122.32334 | 34855 ft | 504 kts | 146° |
| 2026-05-05 06:42 | 12.63065 | 122.36423 | 34856 ft | 504 kts | 147° |
| 2026-05-05 06:42 | 12.57300 | 122.40505 | 34856 ft | 503 kts | 147° |
| 2026-05-05 06:43 | 12.51547 | 122.44577 | 34856 ft | 503 kts | 147° |
| 2026-05-05 06:43 | 12.45815 | 122.48631 | 34856 ft | 503 kts | 147° |
| 2026-05-05 06:44 | 12.40051 | 122.52706 | 34858 ft | 503 kts | 147° |
| 2026-05-05 06:44 | 12.34302 | 122.56774 | 34853 ft | 503 kts | 147° |
| 2026-05-05 06:45 | 12.28541 | 122.60842 | 34854 ft | 503 kts | 147° |
| 2026-05-05 06:45 | 12.22783 | 122.64901 | 34851 ft | 502 kts | 147° |
| 2026-05-05 06:46 | 12.17062 | 122.68935 | 34851 ft | 502 kts | 147° |
| 2026-05-05 06:46 | 12.11309 | 122.72990 | 34849 ft | 502 kts | 147° |
| 2026-05-05 06:47 | 12.05551 | 122.77047 | 34849 ft | 502 kts | 147° |
| 2026-05-05 06:47 | 11.99787 | 122.81107 | 34843 ft | 503 kts | 146° |
| 2026-05-05 06:48 | 11.94018 | 122.85167 | 34846 ft | 503 kts | 146° |
| 2026-05-05 06:48 | 11.88255 | 122.89222 | 34844 ft | 503 kts | 146° |
| 2026-05-05 06:49 | 11.82484 | 122.93279 | 34845 ft | 503 kts | 146° |
| 2026-05-05 06:49 | 11.76762 | 122.97301 | 34845 ft | 502 kts | 146° |
| 2026-05-05 06:50 | 11.70997 | 123.01350 | 34846 ft | 502 kts | 146° |
| 2026-05-05 06:50 | 11.65240 | 123.05391 | 34839 ft | 502 kts | 146° |
| 2026-05-05 06:51 | 11.59495 | 123.09423 | 34842 ft | 501 kts | 146° |
| 2026-05-05 06:51 | 11.53753 | 123.13450 | 34842 ft | 500 kts | 146° |
| 2026-05-05 06:52 | 11.48016 | 123.17471 | 34841 ft | 500 kts | 146° |
| 2026-05-05 06:52 | 11.42289 | 123.21483 | 34841 ft | 498 kts | 146° |
| 2026-05-05 06:53 | 11.36580 | 123.25480 | 34841 ft | 498 kts | 146° |
| 2026-05-05 06:53 | 11.30903 | 123.29454 | 34837 ft | 498 kts | 146° |
| 2026-05-05 06:54 | 11.25195 | 123.33447 | 34838 ft | 497 kts | 146° |
| 2026-05-05 06:54 | 11.19488 | 123.37438 | 34836 ft | 497 kts | 146° |
| 2026-05-05 06:55 | 11.13771 | 123.41434 | 34837 ft | 497 kts | 146° |
| 2026-05-05 06:55 | 11.08091 | 123.45401 | 34838 ft | 497 kts | 146° |
| 2026-05-05 06:56 | 11.02384 | 123.49387 | 34838 ft | 497 kts | 146° |
| 2026-05-05 06:56 | 10.96671 | 123.53378 | 34837 ft | 498 kts | 147° |
| 2026-05-05 06:57 | 10.90949 | 123.57368 | 34838 ft | 498 kts | 147° |
| 2026-05-05 06:57 | 10.85233 | 123.61351 | 34837 ft | 498 kts | 147° |
| 2026-05-05 06:58 | 10.79561 | 123.65303 | 34837 ft | 497 kts | 147° |
| 2026-05-05 06:58 | 10.73846 | 123.69284 | 34837 ft | 498 kts | 146° |
| 2026-05-05 06:59 | 10.68136 | 123.73260 | 34837 ft | 497 kts | 146° |
| 2026-05-05 06:59 | 10.62427 | 123.77234 | 34837 ft | 498 kts | 146° |
| 2026-05-05 07:00 | 10.56701 | 123.81216 | 34840 ft | 498 kts | 146° |
| 2026-05-05 07:00 | 10.50976 | 123.85196 | 34845 ft | 498 kts | 146° |
| 2026-05-05 07:01 | 10.45244 | 123.89178 | 34851 ft | 499 kts | 146° |
| 2026-05-05 07:01 | 10.39514 | 123.93159 | 34856 ft | 499 kts | 146° |
| 2026-05-05 07:02 | 10.33789 | 123.97135 | 34860 ft | 499 kts | 146° |
| 2026-05-05 07:02 | 10.27818 | 124.00693 | 34857 ft | 497 kts | 152° |
| 2026-05-05 07:03 | 10.21694 | 124.03968 | 34855 ft | 498 kts | 153° |
| 2026-05-05 07:03 | 10.15530 | 124.07206 | 34846 ft | 499 kts | 153° |
| 2026-05-05 07:04 | 10.09367 | 124.10445 | 34838 ft | 498 kts | 153° |
| 2026-05-05 07:04 | 10.03242 | 124.13675 | 34829 ft | 499 kts | 153° |
| 2026-05-05 07:05 | 9.97080 | 124.16926 | 34826 ft | 500 kts | 153° |
| 2026-05-05 07:05 | 9.90894 | 124.20189 | 34828 ft | 501 kts | 153° |
| 2026-05-05 07:06 | 9.84712 | 124.23447 | 34825 ft | 500 kts | 153° |
| 2026-05-05 07:06 | 9.78524 | 124.26709 | 34824 ft | 502 kts | 153° |
| 2026-05-05 07:07 | 9.73371 | 124.29424 | 34828 ft | 501 kts | 153° |
| 2026-05-05 07:07 | 9.67176 | 124.32686 | 34826 ft | 501 kts | 153° |
| 2026-05-05 07:08 | 9.60985 | 124.35945 | 34822 ft | 501 kts | 153° |
| 2026-05-05 07:08 | 9.54798 | 124.39200 | 34823 ft | 501 kts | 153° |
| 2026-05-05 07:09 | 9.48637 | 124.42439 | 34821 ft | 502 kts | 153° |
| 2026-05-05 07:09 | 9.42410 | 124.45712 | 34818 ft | 501 kts | 153° |
| 2026-05-05 07:10 | 9.36249 | 124.48950 | 34818 ft | 502 kts | 153° |
| 2026-05-05 07:10 | 9.30039 | 124.52212 | 34821 ft | 502 kts | 153° |
| 2026-05-05 07:11 | 9.23831 | 124.55472 | 34818 ft | 502 kts | 153° |
| 2026-05-05 07:11 | 9.17629 | 124.58727 | 34815 ft | 502 kts | 153° |
| 2026-05-05 07:12 | 9.11431 | 124.61979 | 34814 ft | 502 kts | 153° |
| 2026-05-05 07:12 | 9.05219 | 124.65236 | 34818 ft | 502 kts | 153° |
| 2026-05-05 07:13 | 8.99056 | 124.68467 | 34815 ft | 502 kts | 153° |
| 2026-05-05 07:13 | 8.92849 | 124.71720 | 34821 ft | 502 kts | 153° |
| 2026-05-05 07:14 | 8.86651 | 124.74966 | 34824 ft | 502 kts | 153° |
| 2026-05-05 07:14 | 8.80442 | 124.78218 | 34830 ft | 502 kts | 153° |
| 2026-05-05 07:15 | 8.74230 | 124.81468 | 34835 ft | 502 kts | 153° |
| 2026-05-05 07:15 | 8.68021 | 124.84717 | 34842 ft | 502 kts | 153° |
| 2026-05-05 07:16 | 8.61807 | 124.87967 | 34846 ft | 503 kts | 153° |
| 2026-05-05 07:16 | 8.55585 | 124.91220 | 34857 ft | 504 kts | 153° |
| 2026-05-05 07:17 | 8.49358 | 124.94474 | 34860 ft | 504 kts | 153° |
| 2026-05-05 07:17 | 8.43122 | 124.97733 | 34867 ft | 504 kts | 153° |
| 2026-05-05 07:18 | 8.36939 | 125.00962 | 34868 ft | 503 kts | 153° |
| 2026-05-05 07:18 | 8.30727 | 125.04204 | 34868 ft | 502 kts | 153° |
| 2026-05-05 07:19 | 8.24512 | 125.07448 | 34871 ft | 503 kts | 153° |
| 2026-05-05 07:19 | 8.18297 | 125.10690 | 34861 ft | 503 kts | 153° |
| 2026-05-05 07:20 | 8.12084 | 125.13930 | 34859 ft | 502 kts | 153° |
| 2026-05-05 07:20 | 8.05880 | 125.17164 | 34847 ft | 502 kts | 153° |
| 2026-05-05 07:21 | 7.99707 | 125.20381 | 34848 ft | 502 kts | 153° |
| 2026-05-05 07:21 | 7.93462 | 125.23635 | 34840 ft | 502 kts | 153° |
| 2026-05-05 07:22 | 7.87307 | 125.26841 | 34837 ft | 501 kts | 153° |
| 2026-05-05 07:22 | 7.81109 | 125.30067 | 34835 ft | 502 kts | 153° |
| 2026-05-05 07:23 | 7.74894 | 125.33302 | 34832 ft | 502 kts | 153° |
| 2026-05-05 07:23 | 7.68692 | 125.36528 | 34837 ft | 500 kts | 153° |
| 2026-05-05 07:24 | 7.62509 | 125.39743 | 34832 ft | 500 kts | 153° |
| 2026-05-05 07:24 | 7.56318 | 125.42962 | 34832 ft | 501 kts | 153° |
| 2026-05-05 07:25 | 7.50120 | 125.46184 | 34831 ft | 501 kts | 153° |
| 2026-05-05 07:25 | 7.43920 | 125.49405 | 34829 ft | 500 kts | 153° |
| 2026-05-05 07:26 | 7.37772 | 125.52599 | 34826 ft | 499 kts | 153° |
| 2026-05-05 07:26 | 7.31606 | 125.55801 | 34818 ft | 499 kts | 153° |
| 2026-05-05 07:27 | 7.25430 | 125.59007 | 34830 ft | 499 kts | 153° |
| 2026-05-05 07:27 | 7.19248 | 125.62214 | 34827 ft | 499 kts | 153° |
| 2026-05-05 07:28 | 7.13165 | 125.65552 | 34803 ft | 497 kts | 146° |
| 2026-05-05 07:28 | 7.07593 | 125.69673 | 34804 ft | 498 kts | 143° |
| 2026-05-05 07:29 | 7.02125 | 125.73940 | 34824 ft | 496 kts | 142° |
| 2026-05-05 07:29 | 6.96685 | 125.78221 | 34821 ft | 497 kts | 142° |
| 2026-05-05 07:30 | 6.91257 | 125.82475 | 34821 ft | 498 kts | 142° |
| 2026-05-05 07:30 | 6.83040 | 125.88899 | 34822 ft | 498 kts | 142° |
| 2026-05-05 07:31 | 6.77555 | 125.93174 | 34823 ft | 498 kts | 142° |
| 2026-05-05 07:31 | 6.72074 | 125.97443 | 34818 ft | 498 kts | 142° |
| 2026-05-05 07:32 | 6.66600 | 126.01718 | 34818 ft | 498 kts | 142° |
| 2026-05-05 07:32 | 6.61125 | 126.05982 | 34817 ft | 498 kts | 142° |
| 2026-05-05 07:33 | 6.55641 | 126.10253 | 34818 ft | 498 kts | 142° |
| 2026-05-05 07:33 | 6.50159 | 126.14523 | 34813 ft | 498 kts | 142° |
| 2026-05-05 07:34 | 6.44714 | 126.18765 | 34811 ft | 498 kts | 142° |
| 2026-05-05 07:34 | 6.39233 | 126.23033 | 34812 ft | 498 kts | 142° |
| 2026-05-05 07:35 | 6.33743 | 126.27307 | 34809 ft | 497 kts | 142° |
| 2026-05-05 07:35 | 6.28281 | 126.31558 | 34810 ft | 496 kts | 142° |
| 2026-05-05 07:36 | 6.22818 | 126.35809 | 34810 ft | 496 kts | 142° |
| 2026-05-05 07:36 | 6.17364 | 126.40052 | 34810 ft | 496 kts | 142° |
| 2026-05-05 07:37 | 6.11910 | 126.44293 | 34807 ft | 494 kts | 142° |
| 2026-05-05 07:37 | 6.06466 | 126.48526 | 34810 ft | 496 kts | 142° |
| 2026-05-05 07:38 | 6.01044 | 126.52740 | 34808 ft | 496 kts | 142° |
| 2026-05-05 07:38 | 5.95585 | 126.56982 | 34810 ft | 496 kts | 142° |
| 2026-05-05 07:39 | 5.90134 | 126.61218 | 34809 ft | 495 kts | 142° |
| 2026-05-05 07:39 | 5.84686 | 126.65449 | 34811 ft | 495 kts | 142° |
| 2026-05-05 07:40 | 5.79234 | 126.69682 | 34809 ft | 495 kts | 142° |
| 2026-05-05 07:40 | 5.73821 | 126.73884 | 34809 ft | 495 kts | 142° |
| 2026-05-05 07:41 | 5.68335 | 126.78142 | 34810 ft | 495 kts | 142° |
| 2026-05-05 07:41 | 5.62883 | 126.82372 | 34810 ft | 496 kts | 142° |
| 2026-05-05 07:42 | 5.57459 | 126.86579 | 34810 ft | 495 kts | 142° |
| 2026-05-05 07:42 | 5.52005 | 126.90809 | 34809 ft | 495 kts | 142° |
| 2026-05-05 07:43 | 5.46548 | 126.95040 | 34811 ft | 494 kts | 142° |
| 2026-05-05 07:43 | 5.41098 | 126.99264 | 34813 ft | 495 kts | 142° |
| 2026-05-05 07:44 | 5.35641 | 127.03494 | 34812 ft | 495 kts | 142° |
| 2026-05-05 07:44 | 5.30183 | 127.07722 | 34813 ft | 495 kts | 142° |
| 2026-05-05 07:45 | 5.24728 | 127.11948 | 34812 ft | 495 kts | 142° |
| 2026-05-05 07:45 | 5.19275 | 127.16171 | 34813 ft | 495 kts | 142° |
| 2026-05-05 07:46 | 5.13809 | 127.20403 | 34813 ft | 495 kts | 142° |
| 2026-05-05 07:46 | 5.08350 | 127.24629 | 34812 ft | 495 kts | 142° |
| 2026-05-05 07:47 | 5.02926 | 127.28827 | 34813 ft | 496 kts | 142° |
| 2026-05-05 07:47 | 4.97464 | 127.33053 | 34812 ft | 496 kts | 142° |
| 2026-05-05 07:48 | 4.91995 | 127.37284 | 34813 ft | 496 kts | 142° |
| 2026-05-05 07:48 | 4.86528 | 127.41512 | 34813 ft | 496 kts | 142° |
| 2026-05-05 07:49 | 4.81058 | 127.45742 | 34812 ft | 496 kts | 142° |
| 2026-05-05 07:49 | 4.75583 | 127.49975 | 34812 ft | 496 kts | 142° |
| 2026-05-05 07:50 | 4.70114 | 127.54202 | 34813 ft | 496 kts | 142° |
| 2026-05-05 07:50 | 4.64641 | 127.58431 | 34812 ft | 497 kts | 142° |
| 2026-05-05 07:51 | 4.59170 | 127.62658 | 34810 ft | 496 kts | 142° |
| 2026-05-05 07:51 | 4.53731 | 127.66860 | 34813 ft | 496 kts | 142° |
| 2026-05-05 07:52 | 4.48261 | 127.71085 | 34812 ft | 497 kts | 142° |
| 2026-05-05 07:52 | 4.42788 | 127.75311 | 34813 ft | 497 kts | 142° |
| 2026-05-05 07:53 | 4.37318 | 127.79534 | 34813 ft | 496 kts | 142° |
| 2026-05-05 07:53 | 4.31837 | 127.83764 | 34815 ft | 496 kts | 142° |
| 2026-05-05 07:54 | 4.26363 | 127.87989 | 34815 ft | 496 kts | 142° |
| 2026-05-05 07:54 | 4.21815 | 127.91498 | 34813 ft | 496 kts | 142° |
| 2026-05-05 07:55 | 4.15451 | 127.96408 | 34817 ft | 497 kts | 142° |
| 2026-05-05 07:55 | 4.10878 | 127.99935 | 34815 ft | 497 kts | 142° |
| 2026-05-05 07:56 | 4.05392 | 128.04167 | 34815 ft | 496 kts | 142° |
| 2026-05-05 07:56 | 3.99925 | 128.08383 | 34815 ft | 496 kts | 142° |
| 2026-05-05 07:57 | 3.94472 | 128.12546 | 34815 ft | 496 kts | 143° |
| 2026-05-05 07:57 | 3.88964 | 128.16705 | 34815 ft | 495 kts | 143° |
| 2026-05-05 07:58 | 3.83457 | 128.20866 | 34815 ft | 496 kts | 143° |
| 2026-05-05 07:58 | 3.77946 | 128.25038 | 34815 ft | 496 kts | 143° |
| 2026-05-05 07:59 | 3.72447 | 128.29204 | 34815 ft | 496 kts | 143° |
| 2026-05-05 07:59 | 3.66936 | 128.33380 | 34815 ft | 496 kts | 143° |
| 2026-05-05 08:00 | 3.61428 | 128.37551 | 34818 ft | 496 kts | 143° |
| 2026-05-05 08:00 | 3.55930 | 128.41715 | 34814 ft | 495 kts | 143° |
| 2026-05-05 08:01 | 3.50467 | 128.45851 | 34813 ft | 495 kts | 143° |
| 2026-05-05 08:01 | 3.44973 | 128.50010 | 34813 ft | 495 kts | 143° |
| 2026-05-05 08:02 | 3.39482 | 128.54167 | 34812 ft | 494 kts | 143° |
| 2026-05-05 08:02 | 3.33991 | 128.58322 | 34810 ft | 495 kts | 143° |
| 2026-05-05 08:03 | 3.28486 | 128.62488 | 34810 ft | 495 kts | 143° |
| 2026-05-05 08:03 | 3.23027 | 128.66618 | 34809 ft | 495 kts | 143° |
| 2026-05-05 08:04 | 3.17528 | 128.70778 | 34813 ft | 496 kts | 143° |
| 2026-05-05 08:04 | 3.12018 | 128.74946 | 34813 ft | 496 kts | 143° |
| 2026-05-05 08:05 | 3.06522 | 128.79102 | 34813 ft | 495 kts | 143° |
| 2026-05-05 08:05 | 3.01032 | 128.83253 | 34815 ft | 495 kts | 143° |
| 2026-05-05 08:06 | 2.95523 | 128.87419 | 34812 ft | 495 kts | 143° |
| 2026-05-05 08:06 | 2.90029 | 128.91572 | 34811 ft | 495 kts | 143° |
| 2026-05-05 08:07 | 2.84533 | 128.95727 | 34805 ft | 495 kts | 143° |
| 2026-05-05 08:07 | 2.79038 | 128.99880 | 34808 ft | 495 kts | 143° |
| 2026-05-05 08:08 | 2.73546 | 129.04030 | 34810 ft | 495 kts | 143° |
| 2026-05-05 08:08 | 2.68045 | 129.08186 | 34810 ft | 495 kts | 143° |
| 2026-05-05 08:09 | 2.62552 | 129.12336 | 34813 ft | 495 kts | 142° |
| 2026-05-05 08:09 | 2.57096 | 129.16458 | 34811 ft | 495 kts | 142° |
| 2026-05-05 08:10 | 2.51598 | 129.20611 | 34811 ft | 495 kts | 142° |
| 2026-05-05 08:10 | 2.46108 | 129.24758 | 34810 ft | 494 kts | 142° |
| 2026-05-05 08:11 | 2.40621 | 129.28902 | 34810 ft | 494 kts | 142° |
| 2026-05-05 08:11 | 2.35134 | 129.33044 | 34806 ft | 494 kts | 142° |
| 2026-05-05 08:12 | 2.29666 | 129.37173 | 34811 ft | 495 kts | 142° |
| 2026-05-05 08:12 | 2.24171 | 129.41322 | 34810 ft | 495 kts | 142° |
| 2026-05-05 08:13 | 2.18673 | 129.45473 | 34813 ft | 495 kts | 142° |
| 2026-05-05 08:13 | 2.13176 | 129.49622 | 34809 ft | 495 kts | 142° |
| 2026-05-05 08:14 | 2.07680 | 129.53770 | 34813 ft | 495 kts | 142° |
| 2026-05-05 08:14 | 2.02178 | 129.57922 | 34815 ft | 496 kts | 142° |
| 2026-05-05 08:15 | 1.96663 | 129.62084 | 34816 ft | 497 kts | 142° |
| 2026-05-05 08:15 | 1.91211 | 129.66320 | 35155 ft | 494 kts | 141° |
| 2026-05-05 08:16 | 1.88557 | 129.68466 | 35545 ft | 490 kts | 140° |
| 2026-05-05 08:16 | 1.85916 | 129.70613 | 35815 ft | 489 kts | 140° |
| 2026-05-05 08:16 | 1.83281 | 129.72752 | 36091 ft | 487 kts | 140° |
| 2026-05-05 08:16 | 1.80639 | 129.74887 | 36357 ft | 486 kts | 141° |
| 2026-05-05 08:17 | 1.78006 | 129.77007 | 36552 ft | 486 kts | 141° |
| 2026-05-05 08:17 | 1.75397 | 129.79103 | 36738 ft | 487 kts | 141° |
| 2026-05-05 08:17 | 1.70079 | 129.83365 | 36815 ft | 493 kts | 141° |
| 2026-05-05 08:18 | 1.64718 | 129.87658 | 36816 ft | 493 kts | 141° |
| 2026-05-05 08:18 | 1.59367 | 129.91946 | 36815 ft | 493 kts | 141° |
| 2026-05-05 08:19 | 1.54015 | 129.96234 | 36815 ft | 493 kts | 141° |
| 2026-05-05 08:19 | 1.48661 | 130.00524 | 36815 ft | 493 kts | 141° |
| 2026-05-05 08:20 | 1.43312 | 130.04809 | 36815 ft | 493 kts | 141° |
| 2026-05-05 08:20 | 1.37984 | 130.09077 | 36815 ft | 494 kts | 141° |
| 2026-05-05 08:21 | 1.32618 | 130.13376 | 36817 ft | 494 kts | 141° |
| 2026-05-05 08:21 | 1.27253 | 130.17673 | 36817 ft | 494 kts | 141° |
| 2026-05-05 08:22 | 1.21899 | 130.21962 | 36821 ft | 494 kts | 141° |
| 2026-05-05 08:22 | 1.16534 | 130.26259 | 36822 ft | 494 kts | 141° |
| 2026-05-05 08:23 | 1.11174 | 130.30552 | 36821 ft | 494 kts | 141° |
| 2026-05-05 08:23 | 1.05809 | 130.34848 | 36821 ft | 494 kts | 141° |
| 2026-05-05 08:24 | 1.00476 | 130.39119 | 36821 ft | 494 kts | 141° |
| 2026-05-05 08:24 | 0.95110 | 130.43416 | 36821 ft | 494 kts | 141° |
| 2026-05-05 08:25 | 0.89740 | 130.47716 | 36820 ft | 494 kts | 141° |
| 2026-05-05 08:25 | 0.84371 | 130.52015 | 36821 ft | 494 kts | 140° |
| 2026-05-05 08:26 | 0.79007 | 130.56310 | 36825 ft | 494 kts | 141° |
| 2026-05-05 08:26 | 0.73637 | 130.60609 | 36824 ft | 494 kts | 141° |
| 2026-05-05 08:27 | 0.68263 | 130.64912 | 36820 ft | 495 kts | 141° |
| 2026-05-05 08:27 | 0.62885 | 130.69217 | 36821 ft | 495 kts | 141° |
| 2026-05-05 08:28 | 0.57552 | 130.73487 | 36823 ft | 494 kts | 140° |
| 2026-05-05 08:28 | 0.52191 | 130.77779 | 36821 ft | 494 kts | 141° |
| 2026-05-05 08:29 | 0.46831 | 130.82071 | 36821 ft | 494 kts | 140° |
| 2026-05-05 08:30 | 0.38786 | 130.88511 | 36823 ft | 493 kts | 140° |
| 2026-05-05 08:30 | 0.33429 | 130.92799 | 36823 ft | 493 kts | 140° |
| 2026-05-05 08:31 | 0.28082 | 130.97079 | 36824 ft | 492 kts | 140° |
| 2026-05-05 08:31 | 0.22729 | 131.01365 | 36827 ft | 493 kts | 140° |
| 2026-05-05 08:32 | 0.17377 | 131.05649 | 36826 ft | 494 kts | 140° |
| 2026-05-05 08:32 | 0.12014 | 131.09942 | 36827 ft | 494 kts | 140° |
| 2026-05-05 08:33 | 0.06692 | 131.14201 | 36827 ft | 493 kts | 140° |
| 2026-05-05 08:33 | 0.01340 | 131.18486 | 36826 ft | 493 kts | 141° |
| 2026-05-05 08:34 | -0.04028 | 131.22783 | 36828 ft | 495 kts | 141° |
| 2026-05-05 08:34 | -0.09412 | 131.27093 | 36824 ft | 495 kts | 141° |
| 2026-05-05 08:35 | -0.14782 | 131.31392 | 36826 ft | 495 kts | 141° |
| 2026-05-05 08:35 | -0.20121 | 131.35666 | 36822 ft | 495 kts | 141° |
| 2026-05-05 08:36 | -0.25496 | 131.39968 | 36824 ft | 494 kts | 141° |
| 2026-05-05 08:36 | -0.30857 | 131.44260 | 36823 ft | 493 kts | 141° |
| 2026-05-05 08:37 | -0.36202 | 131.48539 | 36820 ft | 493 kts | 141° |
| 2026-05-05 08:37 | -0.41556 | 131.52825 | 36821 ft | 493 kts | 141° |
| 2026-05-05 08:38 | -0.46908 | 131.57108 | 36820 ft | 492 kts | 141° |
| 2026-05-05 08:38 | -0.52251 | 131.61386 | 36820 ft | 492 kts | 141° |
| 2026-05-05 08:39 | -0.57598 | 131.65667 | 36827 ft | 492 kts | 141° |
| 2026-05-05 08:39 | -0.62926 | 131.69932 | 36826 ft | 490 kts | 141° |
| 2026-05-05 08:40 | -0.68247 | 131.74193 | 36826 ft | 490 kts | 141° |
| 2026-05-05 08:40 | -0.73568 | 131.78453 | 36834 ft | 490 kts | 141° |
| 2026-05-05 08:41 | -0.78864 | 131.82694 | 36831 ft | 491 kts | 141° |
| 2026-05-05 08:41 | -0.84208 | 131.86972 | 36840 ft | 492 kts | 141° |
| 2026-05-05 08:42 | -0.88647 | 131.90526 | 36840 ft | 491 kts | 141° |
| 2026-05-05 08:42 | -0.93972 | 131.94789 | 36846 ft | 490 kts | 141° |
| 2026-05-05 08:43 | -0.99289 | 131.99048 | 36847 ft | 489 kts | 141° |
| 2026-05-05 08:43 | -1.04609 | 132.03308 | 36851 ft | 490 kts | 141° |
| 2026-05-05 08:44 | -1.09927 | 132.07568 | 36850 ft | 490 kts | 141° |
| 2026-05-05 08:44 | -1.15259 | 132.11837 | 36848 ft | 491 kts | 141° |
| 2026-05-05 08:45 | -1.20587 | 132.16105 | 36847 ft | 491 kts | 141° |
| 2026-05-05 08:45 | -1.25917 | 132.20374 | 36841 ft | 491 kts | 141° |
| 2026-05-05 08:46 | -1.31246 | 132.24642 | 36846 ft | 491 kts | 141° |
| 2026-05-05 08:46 | -1.36584 | 132.28918 | 36838 ft | 491 kts | 141° |
| 2026-05-05 08:47 | -1.41877 | 132.33158 | 36838 ft | 490 kts | 141° |
| 2026-05-05 08:47 | -1.47201 | 132.37423 | 36837 ft | 490 kts | 141° |
| 2026-05-05 08:48 | -1.52529 | 132.41693 | 36836 ft | 491 kts | 141° |
| 2026-05-05 08:48 | -1.57854 | 132.45959 | 36825 ft | 490 kts | 141° |
| 2026-05-05 08:49 | -1.63177 | 132.50224 | 36828 ft | 490 kts | 141° |
| 2026-05-05 08:49 | -1.68494 | 132.54486 | 36832 ft | 490 kts | 141° |
| 2026-05-05 08:50 | -1.73813 | 132.58748 | 36827 ft | 490 kts | 141° |
| 2026-05-05 08:50 | -1.79134 | 132.63013 | 36826 ft | 490 kts | 141° |
| 2026-05-05 08:51 | -1.84464 | 132.67285 | 36825 ft | 490 kts | 141° |
| 2026-05-05 08:51 | -1.89783 | 132.71549 | 36825 ft | 490 kts | 141° |
| 2026-05-05 08:52 | -1.95106 | 132.75816 | 36824 ft | 490 kts | 141° |
| 2026-05-05 08:52 | -2.00427 | 132.80082 | 36824 ft | 490 kts | 141° |
| 2026-05-05 08:53 | -2.05715 | 132.84321 | 36826 ft | 490 kts | 141° |
| 2026-05-05 08:53 | -2.11023 | 132.88578 | 36821 ft | 489 kts | 141° |
| 2026-05-05 08:54 | -2.16338 | 132.92841 | 36824 ft | 489 kts | 141° |
| 2026-05-05 08:54 | -2.21647 | 132.97099 | 36823 ft | 489 kts | 141° |
| 2026-05-05 08:55 | -2.26956 | 133.01357 | 36821 ft | 489 kts | 141° |
| 2026-05-05 08:55 | -2.32258 | 133.05610 | 36821 ft | 489 kts | 141° |
| 2026-05-05 08:56 | -2.37574 | 133.09875 | 36821 ft | 489 kts | 141° |
| 2026-05-05 08:56 | -2.42849 | 133.14107 | 36821 ft | 489 kts | 141° |
| 2026-05-05 08:57 | -2.48159 | 133.18368 | 36826 ft | 490 kts | 141° |
| 2026-05-05 08:57 | -2.53478 | 133.22637 | 36826 ft | 490 kts | 141° |
| 2026-05-05 08:58 | -2.58798 | 133.26907 | 36823 ft | 490 kts | 141° |
| 2026-05-05 08:58 | -2.64116 | 133.31175 | 36824 ft | 491 kts | 141° |
| 2026-05-05 08:59 | -2.69449 | 133.35456 | 36827 ft | 490 kts | 141° |
| 2026-05-05 08:59 | -2.74776 | 133.39733 | 36827 ft | 490 kts | 141° |
| 2026-05-05 09:00 | -2.80100 | 133.44008 | 36829 ft | 492 kts | 141° |
| 2026-05-05 09:00 | -2.85442 | 133.48298 | 36830 ft | 492 kts | 141° |
| 2026-05-05 09:01 | -2.90777 | 133.52582 | 36834 ft | 492 kts | 141° |
| 2026-05-05 09:01 | -2.96085 | 133.56846 | 36830 ft | 492 kts | 141° |
| 2026-05-05 09:02 | -3.01430 | 133.61136 | 36838 ft | 492 kts | 142° |
| 2026-05-05 09:02 | -3.06880 | 133.65283 | 36836 ft | 492 kts | 143° |
| 2026-05-05 09:03 | -3.12381 | 133.69364 | 36846 ft | 491 kts | 143° |
| 2026-05-05 09:03 | -3.17860 | 133.73458 | 36846 ft | 492 kts | 143° |
| 2026-05-05 09:04 | -3.23340 | 133.77584 | 36856 ft | 493 kts | 143° |
| 2026-05-05 09:04 | -3.28819 | 133.81719 | 36851 ft | 494 kts | 143° |
| 2026-05-05 09:05 | -3.34295 | 133.85853 | 36855 ft | 493 kts | 143° |
| 2026-05-05 09:05 | -3.39774 | 133.89988 | 36861 ft | 493 kts | 143° |
| 2026-05-05 09:06 | -3.45232 | 133.94106 | 36869 ft | 494 kts | 143° |
| 2026-05-05 09:06 | -3.50714 | 133.98243 | 36865 ft | 493 kts | 143° |
| 2026-05-05 09:07 | -3.56200 | 134.02383 | 36864 ft | 494 kts | 143° |
| 2026-05-05 09:07 | -3.61692 | 134.06529 | 36871 ft | 494 kts | 143° |
| 2026-05-05 09:08 | -3.67189 | 134.10679 | 36873 ft | 494 kts | 143° |
| 2026-05-05 09:08 | -3.72679 | 134.14826 | 36869 ft | 494 kts | 142° |
| 2026-05-05 09:09 | -3.78162 | 134.18967 | 36871 ft | 493 kts | 142° |
| 2026-05-05 09:09 | -3.83640 | 134.23105 | 36857 ft | 493 kts | 142° |
| 2026-05-05 09:10 | -3.89076 | 134.27212 | 36859 ft | 492 kts | 143° |
| 2026-05-05 09:10 | -3.94553 | 134.31350 | 36859 ft | 493 kts | 143° |
| 2026-05-05 09:11 | -4.00028 | 134.35488 | 36866 ft | 492 kts | 142° |
| 2026-05-05 09:11 | -4.05489 | 134.39616 | 36851 ft | 491 kts | 142° |
| 2026-05-05 09:12 | -4.10942 | 134.43738 | 36850 ft | 491 kts | 142° |
| 2026-05-05 09:12 | -4.16398 | 134.47864 | 36847 ft | 491 kts | 142° |
| 2026-05-05 09:13 | -4.21856 | 134.51993 | 36847 ft | 491 kts | 142° |
| 2026-05-05 09:13 | -4.27316 | 134.56123 | 36849 ft | 493 kts | 142° |
| 2026-05-05 09:14 | -4.32788 | 134.60263 | 36849 ft | 492 kts | 142° |
| 2026-05-05 09:14 | -4.37585 | 134.63893 | 36846 ft | 492 kts | 142° |
| 2026-05-05 09:15 | -4.43054 | 134.68033 | 36848 ft | 493 kts | 142° |
| 2026-05-05 09:15 | -4.48494 | 134.72151 | 36850 ft | 493 kts | 142° |
| 2026-05-05 09:16 | -4.53966 | 134.76294 | 36849 ft | 493 kts | 142° |
| 2026-05-05 09:16 | -4.59447 | 134.80444 | 36852 ft | 494 kts | 142° |
| 2026-05-05 09:17 | -4.64947 | 134.84610 | 36847 ft | 495 kts | 141° |
| 2026-05-05 09:17 | -4.70443 | 134.88774 | 36847 ft | 496 kts | 142° |
| 2026-05-05 09:18 | -4.75946 | 134.92944 | 36849 ft | 496 kts | 142° |
| 2026-05-05 09:18 | -4.81423 | 134.97095 | 36847 ft | 496 kts | 142° |
| 2026-05-05 09:19 | -4.86963 | 135.01295 | 36846 ft | 495 kts | 142° |
| 2026-05-05 09:19 | -4.92417 | 135.05431 | 36849 ft | 494 kts | 142° |
| 2026-05-05 09:20 | -4.97912 | 135.09598 | 36850 ft | 495 kts | 142° |
| 2026-05-05 09:20 | -5.03406 | 135.13765 | 36853 ft | 495 kts | 142° |
| 2026-05-05 09:21 | -5.08904 | 135.17936 | 36855 ft | 495 kts | 142° |
| 2026-05-05 09:21 | -5.14390 | 135.22099 | 36852 ft | 495 kts | 142° |
| 2026-05-05 09:22 | -5.19884 | 135.26269 | 36855 ft | 495 kts | 142° |
| 2026-05-05 09:22 | -5.25353 | 135.30421 | 36853 ft | 495 kts | 142° |
| 2026-05-05 09:23 | -5.30859 | 135.34602 | 36853 ft | 495 kts | 142° |
| 2026-05-05 09:23 | -5.36351 | 135.38774 | 36853 ft | 495 kts | 142° |
| 2026-05-05 09:24 | -5.41834 | 135.42939 | 36858 ft | 495 kts | 142° |
| 2026-05-05 09:24 | -5.47341 | 135.47124 | 36852 ft | 496 kts | 143° |
| 2026-05-05 09:25 | -5.52849 | 135.51311 | 36851 ft | 496 kts | 143° |
| 2026-05-05 09:25 | -5.58323 | 135.55472 | 36852 ft | 496 kts | 142° |
| 2026-05-05 09:26 | -5.63833 | 135.59662 | 36854 ft | 497 kts | 142° |
| 2026-05-05 09:26 | -5.69356 | 135.63863 | 36855 ft | 498 kts | 142° |
| 2026-05-05 09:27 | -5.74878 | 135.68065 | 36853 ft | 498 kts | 142° |
| 2026-05-05 09:27 | -5.80396 | 135.72264 | 36855 ft | 497 kts | 142° |
| 2026-05-05 09:28 | -5.85911 | 135.76462 | 36854 ft | 497 kts | 142° |
| 2026-05-05 09:28 | -5.90496 | 135.79953 | 36859 ft | 498 kts | 142° |
| 2026-05-05 09:29 | -5.96033 | 135.84170 | 36859 ft | 499 kts | 142° |
| 2026-05-05 09:29 | -6.01565 | 135.88384 | 36858 ft | 499 kts | 142° |
| 2026-05-05 09:30 | -6.08000 | 135.93288 | 36865 ft | 499 kts | 142° |
| 2026-05-05 09:30 | -6.12600 | 135.96795 | 36865 ft | 499 kts | 142° |
| 2026-05-05 09:31 | -6.18139 | 136.01017 | 36868 ft | 499 kts | 142° |
| 2026-05-05 09:31 | -6.23677 | 136.05240 | 36864 ft | 500 kts | 142° |
| 2026-05-05 09:32 | -6.29215 | 136.09464 | 36863 ft | 500 kts | 142° |
| 2026-05-05 09:32 | -6.34758 | 136.13694 | 36865 ft | 500 kts | 142° |
| 2026-05-05 09:33 | -6.40295 | 136.17920 | 36872 ft | 500 kts | 142° |
| 2026-05-05 09:33 | -6.45839 | 136.22153 | 36866 ft | 500 kts | 142° |
| 2026-05-05 09:34 | -6.51385 | 136.26388 | 36864 ft | 500 kts | 142° |
| 2026-05-05 09:34 | -6.56935 | 136.30627 | 36868 ft | 501 kts | 142° |
| 2026-05-05 09:35 | -6.62485 | 136.34868 | 36866 ft | 501 kts | 142° |
| 2026-05-05 09:35 | -6.70796 | 136.41221 | 36867 ft | 503 kts | 142° |
| 2026-05-05 09:36 | -6.76360 | 136.45475 | 36870 ft | 501 kts | 142° |
| 2026-05-05 09:36 | -6.81924 | 136.49730 | 36867 ft | 502 kts | 142° |
| 2026-05-05 09:37 | -6.87483 | 136.53983 | 36872 ft | 503 kts | 142° |